sensor_id;sensor_type;location;lat;lon;timestamp;P1;durP1;ratioP1;P2;durP2;ratioP2
42006;SDS011;27696;42.704;23.304;2023-02-24T00:02:12;16.85;;;9.43;;
42006;SDS011;27696;42.704;23.304;2023-02-24T00:04:39;12.60;;;9.20;;
42006;SDS011;27696;42.704;23.304;2023-02-24T00:07:08;13.85;;;9.10;;
42006;SDS011;27696;42.704;23.304;2023-02-24T00:09:35;14.80;;;9.30;;
42006;SDS011;27696;42.704;23.304;2023-02-24T00:12:03;13.90;;;10.10;;
42006;SDS011;27696;42.704;23.304;2023-02-24T00:14:34;13.00;;;9.50;;
42006;SDS011;27696;42.704;23.304;2023-02-24T00:17:01;14.20;;;9.82;;
42006;SDS011;27696;42.704;23.304;2023-02-24T00:19:28;14.82;;;10.35;;
42006;SDS011;27696;42.704;23.304;2023-02-24T00:21:56;15.65;;;10.00;;
42006;SDS011;27696;42.704;23.304;2023-02-24T00:24:23;13.57;;;10.40;;
42006;SDS011;27696;42.704;23.304;2023-02-24T00:26:53;15.85;;;10.10;;
42006;SDS011;27696;42.704;23.304;2023-02-24T00:29:21;14.55;;;9.90;;
42006;SDS011;27696;42.704;23.304;2023-02-24T00:31:50;11.15;;;9.30;;
42006;SDS011;27696;42.704;23.304;2023-02-24T00:34:23;13.48;;;9.65;;
42006;SDS011;27696;42.704;23.304;2023-02-24T00:36:49;13.13;;;9.65;;
42006;SDS011;27696;42.704;23.304;2023-02-24T00:39:14;15.85;;;10.32;;
42006;SDS011;27696;42.704;23.304;2023-02-24T00:41:41;13.23;;;9.88;;
42006;SDS011;27696;42.704;23.304;2023-02-24T00:44:08;14.35;;;10.23;;
42006;SDS011;27696;42.704;23.304;2023-02-24T00:46:45;15.85;;;10.52;;
42006;SDS011;27696;42.704;23.304;2023-02-24T00:49:13;15.10;;;11.07;;
42006;SDS011;27696;42.704;23.304;2023-02-24T00:51:41;13.55;;;10.25;;
42006;SDS011;27696;42.704;23.304;2023-02-24T00:54:07;14.93;;;10.27;;
42006;SDS011;27696;42.704;23.304;2023-02-24T00:56:34;13.57;;;9.73;;
42006;SDS011;27696;42.704;23.304;2023-02-24T00:59:00;12.63;;;9.45;;
42006;SDS011;27696;42.704;23.304;2023-02-24T01:01:28;12.95;;;9.77;;
42006;SDS011;27696;42.704;23.304;2023-02-24T01:03:57;13.23;;;9.38;;
42006;SDS011;27696;42.704;23.304;2023-02-24T01:06:24;12.57;;;10.00;;
42006;SDS011;27696;42.704;23.304;2023-02-24T01:08:52;10.73;;;9.15;;
42006;SDS011;27696;42.704;23.304;2023-02-24T01:11:20;12.63;;;9.50;;
42006;SDS011;27696;42.704;23.304;2023-02-24T01:14:07;11.63;;;9.85;;
42006;SDS011;27696;42.704;23.304;2023-02-24T01:16:34;13.35;;;9.80;;
42006;SDS011;27696;42.704;23.304;2023-02-24T01:19:00;13.63;;;8.57;;
42006;SDS011;27696;42.704;23.304;2023-02-24T01:21:27;12.40;;;9.70;;
42006;SDS011;27696;42.704;23.304;2023-02-24T01:23:53;11.80;;;9.82;;
42006;SDS011;27696;42.704;23.304;2023-02-24T01:26:19;13.00;;;9.70;;
42006;SDS011;27696;42.704;23.304;2023-02-24T01:28:45;11.77;;;9.85;;
42006;SDS011;27696;42.704;23.304;2023-02-24T01:31:11;11.32;;;9.30;;
42006;SDS011;27696;42.704;23.304;2023-02-24T01:33:37;11.15;;;9.07;;
42006;SDS011;27696;42.704;23.304;2023-02-24T01:36:10;10.13;;;9.07;;
42006;SDS011;27696;42.704;23.304;2023-02-24T01:38:36;10.35;;;9.25;;
42006;SDS011;27696;42.704;23.304;2023-02-24T01:41:03;11.13;;;9.55;;
42006;SDS011;27696;42.704;23.304;2023-02-24T01:43:33;11.25;;;9.00;;
42006;SDS011;27696;42.704;23.304;2023-02-24T01:46:15;9.63;;;8.70;;
42006;SDS011;27696;42.704;23.304;2023-02-24T01:48:41;12.20;;;9.82;;
42006;SDS011;27696;42.704;23.304;2023-02-24T01:51:06;11.48;;;8.95;;
42006;SDS011;27696;42.704;23.304;2023-02-24T01:53:32;10.98;;;8.43;;
42006;SDS011;27696;42.704;23.304;2023-02-24T01:55:57;10.70;;;8.80;;
42006;SDS011;27696;42.704;23.304;2023-02-24T01:58:26;10.10;;;8.55;;
42006;SDS011;27696;42.704;23.304;2023-02-24T02:00:52;11.25;;;8.43;;
42006;SDS011;27696;42.704;23.304;2023-02-24T02:03:23;11.70;;;8.88;;
42006;SDS011;27696;42.704;23.304;2023-02-24T02:05:55;11.15;;;9.02;;
42006;SDS011;27696;42.704;23.304;2023-02-24T02:08:25;12.50;;;9.23;;
42006;SDS011;27696;42.704;23.304;2023-02-24T02:10:51;11.32;;;8.05;;
42006;SDS011;27696;42.704;23.304;2023-02-24T02:13:22;10.68;;;8.55;;
42006;SDS011;27696;42.704;23.304;2023-02-24T02:18:34;10.48;;;8.80;;
42006;SDS011;27696;42.704;23.304;2023-02-24T02:32:50;10.07;;;8.10;;
42006;SDS011;27696;42.704;23.304;2023-02-24T02:44:08;12.75;;;8.23;;
42006;SDS011;27696;42.704;23.304;2023-02-24T02:46:31;10.38;;;7.78;;
42006;SDS011;27696;42.704;23.304;2023-02-24T02:49:03;11.40;;;7.95;;
42006;SDS011;27696;42.704;23.304;2023-02-24T02:51:33;10.73;;;8.40;;
42006;SDS011;27696;42.704;23.304;2023-02-24T02:56:45;10.00;;;8.00;;
42006;SDS011;27696;42.704;23.304;2023-02-24T02:59:14;10.23;;;7.93;;
42006;SDS011;27696;42.704;23.304;2023-02-24T03:01:46;15.38;;;7.95;;
42006;SDS011;27696;42.704;23.304;2023-02-24T03:04:12;10.73;;;8.18;;
42006;SDS011;27696;42.704;23.304;2023-02-24T03:06:59;11.38;;;7.70;;
42006;SDS011;27696;42.704;23.304;2023-02-24T03:11:56;11.20;;;8.02;;
42006;SDS011;27696;42.704;23.304;2023-02-24T03:14:27;11.65;;;7.95;;
42006;SDS011;27696;42.704;23.304;2023-02-24T03:16:55;12.63;;;7.40;;
42006;SDS011;27696;42.704;23.304;2023-02-24T03:19:27;12.73;;;8.32;;
42006;SDS011;27696;42.704;23.304;2023-02-24T03:24:40;14.52;;;8.73;;
42006;SDS011;27696;42.704;23.304;2023-02-24T03:32:20;13.48;;;8.63;;
42006;SDS011;27696;42.704;23.304;2023-02-24T03:35:22;12.15;;;8.48;;
42006;SDS011;27696;42.704;23.304;2023-02-24T03:37:43;12.13;;;8.02;;
42006;SDS011;27696;42.704;23.304;2023-02-24T03:40:11;12.10;;;8.18;;
42006;SDS011;27696;42.704;23.304;2023-02-24T03:42:47;9.98;;;7.60;;
42006;SDS011;27696;42.704;23.304;2023-02-24T03:45:15;10.27;;;7.95;;
42006;SDS011;27696;42.704;23.304;2023-02-24T03:47:41;11.70;;;8.35;;
42006;SDS011;27696;42.704;23.304;2023-02-24T03:50:12;10.88;;;7.68;;
42006;SDS011;27696;42.704;23.304;2023-02-24T03:58:26;10.43;;;7.90;;
42006;SDS011;27696;42.704;23.304;2023-02-24T04:01:24;10.25;;;7.97;;
42006;SDS011;27696;42.704;23.304;2023-02-24T04:12:53;9.52;;;6.35;;
42006;SDS011;27696;42.704;23.304;2023-02-24T04:15:25;9.80;;;5.95;;
42006;SDS011;27696;42.704;23.304;2023-02-24T04:18:13;7.57;;;5.93;;
42006;SDS011;27696;42.704;23.304;2023-02-24T04:20:40;8.43;;;7.00;;
42006;SDS011;27696;42.704;23.304;2023-02-24T04:23:10;9.45;;;5.95;;
42006;SDS011;27696;42.704;23.304;2023-02-24T04:25:37;8.00;;;6.70;;
42006;SDS011;27696;42.704;23.304;2023-02-24T04:28:04;9.07;;;7.07;;
42006;SDS011;27696;42.704;23.304;2023-02-24T04:30:36;7.82;;;6.63;;
42006;SDS011;27696;42.704;23.304;2023-02-24T04:33:03;10.88;;;6.18;;
42006;SDS011;27696;42.704;23.304;2023-02-24T04:35:28;8.88;;;7.07;;
42006;SDS011;27696;42.704;23.304;2023-02-24T04:37:54;9.35;;;6.75;;
42006;SDS011;27696;42.704;23.304;2023-02-24T04:40:20;9.40;;;6.07;;
42006;SDS011;27696;42.704;23.304;2023-02-24T04:42:47;9.27;;;6.20;;
42006;SDS011;27696;42.704;23.304;2023-02-24T04:45:15;11.23;;;6.20;;
42006;SDS011;27696;42.704;23.304;2023-02-24T04:47:44;9.27;;;7.03;;
42006;SDS011;27696;42.704;23.304;2023-02-24T04:50:13;13.95;;;6.57;;
42006;SDS011;27696;42.704;23.304;2023-02-24T04:52:47;9.85;;;6.40;;
42006;SDS011;27696;42.704;23.304;2023-02-24T04:55:14;11.02;;;6.97;;
42006;SDS011;27696;42.704;23.304;2023-02-24T04:57:41;8.70;;;6.65;;
42006;SDS011;27696;42.704;23.304;2023-02-24T05:00:10;8.50;;;6.93;;
42006;SDS011;27696;42.704;23.304;2023-02-24T05:02:48;11.57;;;6.25;;
42006;SDS011;27696;42.704;23.304;2023-02-24T05:05:15;10.75;;;6.60;;
42006;SDS011;27696;42.704;23.304;2023-02-24T05:07:41;9.35;;;6.53;;
42006;SDS011;27696;42.704;23.304;2023-02-24T05:10:11;10.15;;;6.28;;
42006;SDS011;27696;42.704;23.304;2023-02-24T05:12:37;8.57;;;6.13;;
42006;SDS011;27696;42.704;23.304;2023-02-24T05:15:04;13.23;;;6.68;;
42006;SDS011;27696;42.704;23.304;2023-02-24T05:17:31;8.85;;;6.63;;
42006;SDS011;27696;42.704;23.304;2023-02-24T05:19:56;10.23;;;7.20;;
42006;SDS011;27696;42.704;23.304;2023-02-24T05:22:40;13.15;;;7.65;;
42006;SDS011;27696;42.704;23.304;2023-02-24T05:25:05;16.30;;;11.02;;
42006;SDS011;27696;42.704;23.304;2023-02-24T05:27:32;14.40;;;8.55;;
42006;SDS011;27696;42.704;23.304;2023-02-24T05:30:03;12.02;;;7.97;;
42006;SDS011;27696;42.704;23.304;2023-02-24T05:32:29;10.68;;;7.10;;
42006;SDS011;27696;42.704;23.304;2023-02-24T05:34:54;10.70;;;6.85;;
42006;SDS011;27696;42.704;23.304;2023-02-24T05:37:19;9.38;;;7.22;;
42006;SDS011;27696;42.704;23.304;2023-02-24T05:39:45;7.93;;;6.18;;
42006;SDS011;27696;42.704;23.304;2023-02-24T05:42:10;8.20;;;5.97;;
42006;SDS011;27696;42.704;23.304;2023-02-24T05:44:36;8.82;;;7.10;;
42006;SDS011;27696;42.704;23.304;2023-02-24T05:47:02;10.18;;;6.07;;
42006;SDS011;27696;42.704;23.304;2023-02-24T05:49:30;12.20;;;7.10;;
42006;SDS011;27696;42.704;23.304;2023-02-24T05:51:59;11.85;;;6.97;;
42006;SDS011;27696;42.704;23.304;2023-02-24T05:54:30;11.57;;;7.13;;
42006;SDS011;27696;42.704;23.304;2023-02-24T05:56:58;11.13;;;7.00;;
42006;SDS011;27696;42.704;23.304;2023-02-24T05:59:28;12.38;;;6.97;;
42006;SDS011;27696;42.704;23.304;2023-02-24T06:01:57;11.85;;;6.60;;
42006;SDS011;27696;42.704;23.304;2023-02-24T06:04:24;13.90;;;7.85;;
42006;SDS011;27696;42.704;23.304;2023-02-24T06:07:11;11.55;;;6.80;;
42006;SDS011;27696;42.704;23.304;2023-02-24T06:09:42;11.18;;;7.10;;
42006;SDS011;27696;42.704;23.304;2023-02-24T06:12:09;12.32;;;7.22;;
42006;SDS011;27696;42.704;23.304;2023-02-24T06:14:35;11.80;;;7.60;;
42006;SDS011;27696;42.704;23.304;2023-02-24T06:17:00;12.55;;;7.65;;
42006;SDS011;27696;42.704;23.304;2023-02-24T06:19:28;12.70;;;7.40;;
42006;SDS011;27696;42.704;23.304;2023-02-24T06:21:57;10.02;;;6.88;;
42006;SDS011;27696;42.704;23.304;2023-02-24T06:24:28;10.32;;;7.18;;
42006;SDS011;27696;42.704;23.304;2023-02-24T06:26:54;9.35;;;6.30;;
42006;SDS011;27696;42.704;23.304;2023-02-24T06:29:27;15.60;;;7.55;;
42006;SDS011;27696;42.704;23.304;2023-02-24T06:31:53;10.38;;;6.90;;
42006;SDS011;27696;42.704;23.304;2023-02-24T06:34:20;13.30;;;6.55;;
42006;SDS011;27696;42.704;23.304;2023-02-24T06:36:46;10.68;;;6.20;;
42006;SDS011;27696;42.704;23.304;2023-02-24T06:39:13;8.90;;;6.65;;
42006;SDS011;27696;42.704;23.304;2023-02-24T06:41:38;11.07;;;6.78;;
42006;SDS011;27696;42.704;23.304;2023-02-24T06:44:04;11.75;;;6.63;;
42006;SDS011;27696;42.704;23.304;2023-02-24T06:46:30;9.35;;;6.30;;
42006;SDS011;27696;42.704;23.304;2023-02-24T06:48:56;8.80;;;6.05;;
42006;SDS011;27696;42.704;23.304;2023-02-24T06:51:24;11.95;;;6.75;;
42006;SDS011;27696;42.704;23.304;2023-02-24T06:53:54;10.82;;;7.15;;
42006;SDS011;27696;42.704;23.304;2023-02-24T06:56:23;11.30;;;7.78;;
42006;SDS011;27696;42.704;23.304;2023-02-24T06:58:50;10.48;;;6.85;;
42006;SDS011;27696;42.704;23.304;2023-02-24T07:01:19;11.65;;;7.22;;
42006;SDS011;27696;42.704;23.304;2023-02-24T07:03:49;10.77;;;7.63;;
42006;SDS011;27696;42.704;23.304;2023-02-24T07:06:31;14.40;;;7.95;;
42006;SDS011;27696;42.704;23.304;2023-02-24T07:08:59;12.93;;;7.95;;
42006;SDS011;27696;42.704;23.304;2023-02-24T07:11:27;12.55;;;8.07;;
42006;SDS011;27696;42.704;23.304;2023-02-24T07:13:52;10.55;;;7.63;;
42006;SDS011;27696;42.704;23.304;2023-02-24T07:16:19;11.20;;;7.35;;
42006;SDS011;27696;42.704;23.304;2023-02-24T07:18:51;11.45;;;8.38;;
42006;SDS011;27696;42.704;23.304;2023-02-24T07:21:17;11.82;;;7.95;;
42006;SDS011;27696;42.704;23.304;2023-02-24T07:23:47;13.30;;;8.88;;
42006;SDS011;27696;42.704;23.304;2023-02-24T07:26:17;13.52;;;8.20;;
42006;SDS011;27696;42.704;23.304;2023-02-24T07:28:45;11.57;;;8.43;;
42006;SDS011;27696;42.704;23.304;2023-02-24T07:31:12;14.68;;;8.65;;
42006;SDS011;27696;42.704;23.304;2023-02-24T07:33:41;11.10;;;7.78;;
42006;SDS011;27696;42.704;23.304;2023-02-24T07:36:09;13.30;;;9.30;;
42006;SDS011;27696;42.704;23.304;2023-02-24T07:38:39;11.05;;;7.65;;
42006;SDS011;27696;42.704;23.304;2023-02-24T07:41:09;11.35;;;7.53;;
42006;SDS011;27696;42.704;23.304;2023-02-24T07:43:36;12.90;;;7.75;;
42006;SDS011;27696;42.704;23.304;2023-02-24T07:48:35;11.35;;;7.72;;
42006;SDS011;27696;42.704;23.304;2023-02-24T07:51:11;12.00;;;8.02;;
42006;SDS011;27696;42.704;23.304;2023-02-24T07:53:41;13.23;;;8.07;;
42006;SDS011;27696;42.704;23.304;2023-02-24T07:56:14;13.57;;;8.68;;
42006;SDS011;27696;42.704;23.304;2023-02-24T07:58:45;13.17;;;7.77;;
42006;SDS011;27696;42.704;23.304;2023-02-24T08:01:15;12.27;;;9.20;;
42006;SDS011;27696;42.704;23.304;2023-02-24T08:03:50;13.98;;;9.55;;
42006;SDS011;27696;42.704;23.304;2023-02-24T08:06:20;12.48;;;8.80;;
42006;SDS011;27696;42.704;23.304;2023-02-24T08:08:55;13.88;;;9.25;;
42006;SDS011;27696;42.704;23.304;2023-02-24T08:11:34;15.18;;;9.23;;
42006;SDS011;27696;42.704;23.304;2023-02-24T08:14:00;15.70;;;9.13;;
42006;SDS011;27696;42.704;23.304;2023-02-24T08:16:38;14.40;;;9.27;;
42006;SDS011;27696;42.704;23.304;2023-02-24T08:19:08;13.05;;;8.50;;
42006;SDS011;27696;42.704;23.304;2023-02-24T08:21:41;15.60;;;9.13;;
42006;SDS011;27696;42.704;23.304;2023-02-24T08:24:21;12.13;;;8.20;;
42006;SDS011;27696;42.704;23.304;2023-02-24T08:26:51;18.67;;;10.75;;
42006;SDS011;27696;42.704;23.304;2023-02-24T08:29:31;14.35;;;8.98;;
42006;SDS011;27696;42.704;23.304;2023-02-24T08:32:04;15.90;;;9.48;;
42006;SDS011;27696;42.704;23.304;2023-02-24T08:34:35;17.88;;;9.63;;
42006;SDS011;27696;42.704;23.304;2023-02-24T08:37:01;14.40;;;9.45;;
42006;SDS011;27696;42.704;23.304;2023-02-24T08:39:27;15.55;;;10.02;;
42006;SDS011;27696;42.704;23.304;2023-02-24T08:41:55;17.38;;;10.65;;
42006;SDS011;27696;42.704;23.304;2023-02-24T08:44:21;18.40;;;10.15;;
42006;SDS011;27696;42.704;23.304;2023-02-24T08:46:48;18.73;;;10.25;;
42006;SDS011;27696;42.704;23.304;2023-02-24T08:49:15;16.58;;;11.05;;
42006;SDS011;27696;42.704;23.304;2023-02-24T08:51:42;20.08;;;10.80;;
42006;SDS011;27696;42.704;23.304;2023-02-24T08:54:16;15.52;;;10.13;;
42006;SDS011;27696;42.704;23.304;2023-02-24T08:56:51;17.08;;;10.60;;
42006;SDS011;27696;42.704;23.304;2023-02-24T08:59:20;15.68;;;10.93;;
42006;SDS011;27696;42.704;23.304;2023-02-24T09:04:52;17.52;;;12.02;;
42006;SDS011;27696;42.704;23.304;2023-02-24T09:07:21;22.00;;;15.00;;
42006;SDS011;27696;42.704;23.304;2023-02-24T09:09:49;20.38;;;13.88;;
42006;SDS011;27696;42.704;23.304;2023-02-24T09:12:20;19.63;;;13.05;;
42006;SDS011;27696;42.704;23.304;2023-02-24T09:14:52;17.95;;;12.10;;
42006;SDS011;27696;42.704;23.304;2023-02-24T09:17:20;22.40;;;12.15;;
42006;SDS011;27696;42.704;23.304;2023-02-24T09:20:04;18.20;;;12.20;;
42006;SDS011;27696;42.704;23.304;2023-02-24T09:22:54;21.85;;;11.20;;
42006;SDS011;27696;42.704;23.304;2023-02-24T09:25:32;16.10;;;10.70;;
42006;SDS011;27696;42.704;23.304;2023-02-24T09:30:38;23.20;;;12.55;;
42006;SDS011;27696;42.704;23.304;2023-02-24T09:33:31;16.70;;;11.15;;
42006;SDS011;27696;42.704;23.304;2023-02-24T09:38:34;20.98;;;10.98;;
42006;SDS011;27696;42.704;23.304;2023-02-24T09:41:23;17.00;;;11.30;;
42006;SDS011;27696;42.704;23.304;2023-02-24T09:44:02;20.20;;;11.80;;
42006;SDS011;27696;42.704;23.304;2023-02-24T09:47:25;16.63;;;11.45;;
42006;SDS011;27696;42.704;23.304;2023-02-24T09:49:53;18.63;;;12.18;;
42006;SDS011;27696;42.704;23.304;2023-02-24T09:52:20;18.75;;;11.23;;
42006;SDS011;27696;42.704;23.304;2023-02-24T09:55:03;21.75;;;11.50;;
42006;SDS011;27696;42.704;23.304;2023-02-24T09:57:53;18.55;;;13.63;;
42006;SDS011;27696;42.704;23.304;2023-02-24T10:06:28;16.25;;;11.52;;
42006;SDS011;27696;42.704;23.304;2023-02-24T10:09:03;19.02;;;11.32;;
42006;SDS011;27696;42.704;23.304;2023-02-24T10:11:46;20.65;;;12.50;;
42006;SDS011;27696;42.704;23.304;2023-02-24T10:14:30;18.02;;;12.35;;
42006;SDS011;27696;42.704;23.304;2023-02-24T10:17:07;17.73;;;12.27;;
42006;SDS011;27696;42.704;23.304;2023-02-24T10:20:05;21.17;;;12.40;;
42006;SDS011;27696;42.704;23.304;2023-02-24T10:22:59;18.88;;;12.98;;
42006;SDS011;27696;42.704;23.304;2023-02-24T10:31:11;24.15;;;12.93;;
42006;SDS011;27696;42.704;23.304;2023-02-24T10:33:54;23.77;;;13.30;;
42006;SDS011;27696;42.704;23.304;2023-02-24T10:36:22;22.70;;;12.23;;
42006;SDS011;27696;42.704;23.304;2023-02-24T10:39:00;20.15;;;12.50;;
42006;SDS011;27696;42.704;23.304;2023-02-24T10:41:40;20.67;;;13.48;;
42006;SDS011;27696;42.704;23.304;2023-02-24T10:44:10;26.90;;;13.57;;
42006;SDS011;27696;42.704;23.304;2023-02-24T10:46:41;19.83;;;12.00;;
42006;SDS011;27696;42.704;23.304;2023-02-24T10:49:07;17.30;;;12.73;;
42006;SDS011;27696;42.704;23.304;2023-02-24T10:51:40;20.02;;;12.68;;
42006;SDS011;27696;42.704;23.304;2023-02-24T10:54:10;22.85;;;13.20;;
42006;SDS011;27696;42.704;23.304;2023-02-24T10:56:47;21.50;;;13.52;;
42006;SDS011;27696;42.704;23.304;2023-02-24T10:59:31;24.67;;;13.18;;
42006;SDS011;27696;42.704;23.304;2023-02-24T11:02:23;18.58;;;13.50;;
42006;SDS011;27696;42.704;23.304;2023-02-24T11:04:57;24.83;;;13.98;;
42006;SDS011;27696;42.704;23.304;2023-02-24T11:07:27;19.90;;;14.77;;
42006;SDS011;27696;42.704;23.304;2023-02-24T11:10:13;22.80;;;14.30;;
42006;SDS011;27696;42.704;23.304;2023-02-24T11:12:50;19.98;;;13.77;;
42006;SDS011;27696;42.704;23.304;2023-02-24T11:18:27;21.17;;;14.15;;
42006;SDS011;27696;42.704;23.304;2023-02-24T11:20:54;23.75;;;14.07;;
42006;SDS011;27696;42.704;23.304;2023-02-24T11:23:40;33.70;;;15.70;;
42006;SDS011;27696;42.704;23.304;2023-02-24T11:26:15;21.65;;;15.35;;
42006;SDS011;27696;42.704;23.304;2023-02-24T11:39:40;24.05;;;16.95;;
42006;SDS011;27696;42.704;23.304;2023-02-24T11:42:32;25.52;;;16.52;;
42006;SDS011;27696;42.704;23.304;2023-02-24T11:45:14;22.40;;;14.38;;
42006;SDS011;27696;42.704;23.304;2023-02-24T11:48:02;19.38;;;14.95;;
42006;SDS011;27696;42.704;23.304;2023-02-24T11:53:19;25.67;;;14.73;;
42006;SDS011;27696;42.704;23.304;2023-02-24T11:56:05;20.80;;;14.38;;
42006;SDS011;27696;42.704;23.304;2023-02-24T11:58:56;24.23;;;14.85;;
42006;SDS011;27696;42.704;23.304;2023-02-24T12:01:42;26.63;;;16.13;;
42006;SDS011;27696;42.704;23.304;2023-02-24T12:04:16;29.37;;;15.50;;
42006;SDS011;27696;42.704;23.304;2023-02-24T12:06:58;19.25;;;13.65;;
42006;SDS011;27696;42.704;23.304;2023-02-24T12:12:50;25.00;;;15.48;;
42006;SDS011;27696;42.704;23.304;2023-02-24T12:15:23;19.20;;;14.50;;
42006;SDS011;27696;42.704;23.304;2023-02-24T12:18:03;19.80;;;14.02;;
42006;SDS011;27696;42.704;23.304;2023-02-24T12:20:35;20.50;;;15.07;;
42006;SDS011;27696;42.704;23.304;2023-02-24T12:25:57;21.67;;;14.27;;
42006;SDS011;27696;42.704;23.304;2023-02-24T12:39:23;24.02;;;14.85;;
42006;SDS011;27696;42.704;23.304;2023-02-24T12:42:13;19.17;;;14.45;;
42006;SDS011;27696;42.704;23.304;2023-02-24T12:44:50;22.35;;;14.45;;
42006;SDS011;27696;42.704;23.304;2023-02-24T12:47:34;19.35;;;15.02;;
42006;SDS011;27696;42.704;23.304;2023-02-24T12:56:14;25.88;;;17.67;;
42006;SDS011;27696;42.704;23.304;2023-02-24T12:58:45;25.33;;;18.20;;
42006;SDS011;27696;42.704;23.304;2023-02-24T13:08:58;23.83;;;18.83;;
42006;SDS011;27696;42.704;23.304;2023-02-24T13:16:38;26.98;;;17.42;;
42006;SDS011;27696;42.704;23.304;2023-02-24T13:24:59;22.13;;;18.08;;
42006;SDS011;27696;42.704;23.304;2023-02-24T13:27:35;22.05;;;17.17;;
42006;SDS011;27696;42.704;23.304;2023-02-24T13:30:06;24.42;;;18.20;;
42006;SDS011;27696;42.704;23.304;2023-02-24T13:32:58;25.85;;;19.00;;
42006;SDS011;27696;42.704;23.304;2023-02-24T13:35:32;23.25;;;18.60;;
42006;SDS011;27696;42.704;23.304;2023-02-24T13:38:21;26.70;;;18.80;;
42006;SDS011;27696;42.704;23.304;2023-02-24T13:43:33;27.67;;;19.00;;
42006;SDS011;27696;42.704;23.304;2023-02-24T13:45:59;25.35;;;18.80;;
42006;SDS011;27696;42.704;23.304;2023-02-24T14:02:56;24.08;;;20.10;;
42006;SDS011;27696;42.704;23.304;2023-02-24T14:05:30;27.45;;;20.55;;
42006;SDS011;27696;42.704;23.304;2023-02-24T14:07:58;26.92;;;19.98;;
42006;SDS011;27696;42.704;23.304;2023-02-24T14:10:31;22.00;;;19.23;;
42006;SDS011;27696;42.704;23.304;2023-02-24T14:15:44;28.10;;;22.20;;
42006;SDS011;27696;42.704;23.304;2023-02-24T14:18:15;27.98;;;21.15;;
42006;SDS011;27696;42.704;23.304;2023-02-24T14:20:43;32.92;;;21.33;;
42006;SDS011;27696;42.704;23.304;2023-02-24T14:23:19;28.50;;;21.13;;
42006;SDS011;27696;42.704;23.304;2023-02-24T14:28:35;28.77;;;21.30;;
42006;SDS011;27696;42.704;23.304;2023-02-24T14:31:14;26.52;;;20.58;;
42006;SDS011;27696;42.704;23.304;2023-02-24T14:33:40;25.40;;;20.40;;
42006;SDS011;27696;42.704;23.304;2023-02-24T14:36:17;28.88;;;22.13;;
42006;SDS011;27696;42.704;23.304;2023-02-24T14:38:46;30.23;;;22.42;;
42006;SDS011;27696;42.704;23.304;2023-02-24T14:41:25;27.83;;;21.48;;
42006;SDS011;27696;42.704;23.304;2023-02-24T14:43:52;29.25;;;21.95;;
42006;SDS011;27696;42.704;23.304;2023-02-24T14:46:17;27.58;;;22.38;;
42006;SDS011;27696;42.704;23.304;2023-02-24T14:48:43;29.33;;;23.23;;
42006;SDS011;27696;42.704;23.304;2023-02-24T14:53:57;26.67;;;22.50;;
42006;SDS011;27696;42.704;23.304;2023-02-24T14:56:29;32.17;;;22.50;;
42006;SDS011;27696;42.704;23.304;2023-02-24T14:58:57;35.65;;;25.25;;
42006;SDS011;27696;42.704;23.304;2023-02-24T15:01:29;30.08;;;22.95;;
42006;SDS011;27696;42.704;23.304;2023-02-24T15:03:57;25.73;;;20.92;;
42006;SDS011;27696;42.704;23.304;2023-02-24T15:06:26;30.85;;;22.17;;
42006;SDS011;27696;42.704;23.304;2023-02-24T15:08:55;28.23;;;22.33;;
42006;SDS011;27696;42.704;23.304;2023-02-24T15:11:29;33.73;;;24.07;;
42006;SDS011;27696;42.704;23.304;2023-02-24T15:13:59;33.65;;;26.50;;
42006;SDS011;27696;42.704;23.304;2023-02-24T15:16:36;35.85;;;28.55;;
42006;SDS011;27696;42.704;23.304;2023-02-24T15:19:24;38.70;;;28.23;;
42006;SDS011;27696;42.704;23.304;2023-02-24T15:21:55;39.00;;;27.95;;
42006;SDS011;27696;42.704;23.304;2023-02-24T15:24:28;42.28;;;28.75;;
42006;SDS011;27696;42.704;23.304;2023-02-24T15:29:25;38.97;;;27.48;;
42006;SDS011;27696;42.704;23.304;2023-02-24T15:31:53;41.42;;;28.70;;
42006;SDS011;27696;42.704;23.304;2023-02-24T15:34:29;42.13;;;28.40;;
42006;SDS011;27696;42.704;23.304;2023-02-24T15:37:41;40.25;;;29.42;;
42006;SDS011;27696;42.704;23.304;2023-02-24T15:39:46;49.42;;;33.33;;
42006;SDS011;27696;42.704;23.304;2023-02-24T15:47:57;47.60;;;30.15;;
42006;SDS011;27696;42.704;23.304;2023-02-24T15:50:24;43.88;;;30.85;;
42006;SDS011;27696;42.704;23.304;2023-02-24T15:52:51;39.30;;;29.83;;
42006;SDS011;27696;42.704;23.304;2023-02-24T15:55:19;52.25;;;30.58;;
42006;SDS011;27696;42.704;23.304;2023-02-24T15:57:46;41.45;;;30.00;;
42006;SDS011;27696;42.704;23.304;2023-02-24T16:00:13;48.75;;;30.27;;
42006;SDS011;27696;42.704;23.304;2023-02-24T16:02:41;47.22;;;31.67;;
42006;SDS011;27696;42.704;23.304;2023-02-24T16:05:08;44.00;;;33.25;;
42006;SDS011;27696;42.704;23.304;2023-02-24T16:07:36;47.42;;;32.67;;
42006;SDS011;27696;42.704;23.304;2023-02-24T16:10:03;44.08;;;33.53;;
42006;SDS011;27696;42.704;23.304;2023-02-24T16:12:30;47.38;;;31.67;;
42006;SDS011;27696;42.704;23.304;2023-02-24T16:14:58;40.35;;;31.63;;
42006;SDS011;27696;42.704;23.304;2023-02-24T16:17:29;45.35;;;33.50;;
42006;SDS011;27696;42.704;23.304;2023-02-24T16:19:58;49.88;;;32.58;;
42006;SDS011;27696;42.704;23.304;2023-02-24T16:22:24;48.85;;;31.83;;
42006;SDS011;27696;42.704;23.304;2023-02-24T16:24:49;48.92;;;32.88;;
42006;SDS011;27696;42.704;23.304;2023-02-24T16:27:16;49.55;;;33.60;;
42006;SDS011;27696;42.704;23.304;2023-02-24T16:29:42;44.03;;;31.85;;
42006;SDS011;27696;42.704;23.304;2023-02-24T16:32:11;47.90;;;31.95;;
42006;SDS011;27696;42.704;23.304;2023-02-24T16:34:37;47.45;;;32.00;;
42006;SDS011;27696;42.704;23.304;2023-02-24T16:37:03;46.28;;;31.63;;
42006;SDS011;27696;42.704;23.304;2023-02-24T16:39:34;45.22;;;32.67;;
42006;SDS011;27696;42.704;23.304;2023-02-24T16:42:00;46.45;;;35.33;;
42006;SDS011;27696;42.704;23.304;2023-02-24T16:44:30;48.72;;;35.17;;
42006;SDS011;27696;42.704;23.304;2023-02-24T16:46:55;54.13;;;36.50;;
42006;SDS011;27696;42.704;23.304;2023-02-24T16:49:21;61.97;;;39.67;;
42006;SDS011;27696;42.704;23.304;2023-02-24T16:51:46;67.25;;;41.40;;
42006;SDS011;27696;42.704;23.304;2023-02-24T16:54:12;66.25;;;41.83;;
42006;SDS011;27696;42.704;23.304;2023-02-24T16:56:37;63.40;;;42.50;;
42006;SDS011;27696;42.704;23.304;2023-02-24T16:59:02;60.83;;;42.15;;
42006;SDS011;27696;42.704;23.304;2023-02-24T17:01:28;61.35;;;40.88;;
42006;SDS011;27696;42.704;23.304;2023-02-24T17:03:53;61.67;;;40.70;;
42006;SDS011;27696;42.704;23.304;2023-02-24T17:06:19;58.22;;;41.28;;
42006;SDS011;27696;42.704;23.304;2023-02-24T17:08:45;58.58;;;41.30;;
42006;SDS011;27696;42.704;23.304;2023-02-24T17:11:12;60.55;;;39.53;;
42006;SDS011;27696;42.704;23.304;2023-02-24T17:13:39;61.28;;;41.42;;
42006;SDS011;27696;42.704;23.304;2023-02-24T17:16:04;62.83;;;41.88;;
42006;SDS011;27696;42.704;23.304;2023-02-24T17:18:31;64.05;;;38.75;;
42006;SDS011;27696;42.704;23.304;2023-02-24T17:20:56;59.60;;;41.42;;
42006;SDS011;27696;42.704;23.304;2023-02-24T17:23:22;56.78;;;39.17;;
42006;SDS011;27696;42.704;23.304;2023-02-24T17:25:49;54.55;;;38.53;;